Terminal Aerodrome Forecast
Issued by NWS Missoula, MT

Home | Current Version | Previous Version | Text Only | Print | Product List | Glossary On
Versions: 1 2 3 4 5 6 7 8 9 10 11 12 13 14 15 16 17 18 19 20 21 22 23 24 25 26
000
FTUS45 KMSO 161720
TAFBTM
TAF
KBTM 161720Z 1618/1718 16005KT P6SM VCSH BKN100
     FM162000 32008KT P6SM VCTS FEW060CB SCT080 BKN100
      TEMPO 1622/1702 P6SM -TSRA BKN050CB OVC070
     FM170300 30010KT P6SM SCT050 BKN080=

USA.gov is the U.S. government's official web portal to all federal, state and local government web resources and services.